createdAt,value
2022-09-28T00:01:17.454Z,12.33
2022-09-28T00:03:45.139Z,12.31
2022-09-28T00:06:14.176Z,12.30
2022-09-28T00:08:41.072Z,12.30
2022-09-28T00:11:11.733Z,12.31
2022-09-28T00:13:38.648Z,12.32
2022-09-28T00:16:09.836Z,12.32
2022-09-28T00:18:36.806Z,12.30
2022-09-28T00:21:05.138Z,12.29
2022-09-28T00:23:33.197Z,12.29
2022-09-28T00:26:04.815Z,12.30
2022-09-28T00:28:32.359Z,12.30
2022-09-28T00:30:59.619Z,12.29
2022-09-28T00:33:26.312Z,12.27
2022-09-28T00:35:58.048Z,12.26
2022-09-28T00:38:28.814Z,12.27
2022-09-28T00:40:55.842Z,12.28
2022-09-28T00:43:23.521Z,12.28
2022-09-28T00:46:10.192Z,12.27
2022-09-28T00:48:40.438Z,12.26
2022-09-28T00:51:11.314Z,12.23
2022-09-28T00:53:42.861Z,12.24
2022-09-28T00:56:16.895Z,12.24
2022-09-28T00:58:46.621Z,12.23
2022-09-28T01:01:13.723Z,12.23
2022-09-28T01:03:44.742Z,12.20
2022-09-28T01:06:20.663Z,12.20
2022-09-28T01:08:51.325Z,12.20
2022-09-28T01:11:19.192Z,12.21
2022-09-28T01:13:50.811Z,12.20
2022-09-28T01:16:31.433Z,12.19
2022-09-28T01:19:11.018Z,12.17
2022-09-28T01:21:51.196Z,12.16
2022-09-28T01:24:30.840Z,12.15
2022-09-28T01:27:05.366Z,12.16
2022-09-28T01:29:47.260Z,12.14
2022-09-28T01:32:39.757Z,12.11
2022-09-28T01:35:14.912Z,12.07
2022-09-28T01:37:51.715Z,12.05
2022-09-28T01:40:21.132Z,12.07
2022-09-28T01:42:53.715Z,12.08
2022-09-28T01:45:26.465Z,12.07
2022-09-28T01:47:59.994Z,12.08
2022-09-28T01:50:30.578Z,12.06
2022-09-28T01:53:05.616Z,12.05
2022-09-28T01:55:47.528Z,12.06
2022-09-28T01:58:44.227Z,12.07
2022-09-28T02:01:28.946Z,12.06
2022-09-28T02:04:02.102Z,12.05
2022-09-28T02:06:39.999Z,12.05
2022-09-28T02:09:35.686Z,12.04
2022-09-28T02:12:14.519Z,12.05
2022-09-28T02:14:44.531Z,12.04
2022-09-28T02:17:12.091Z,12.04
2022-09-28T02:19:40.752Z,12.02
2022-09-28T02:22:24.279Z,12.00
2022-09-28T02:25:03.327Z,11.99
2022-09-28T02:27:40.747Z,12.00
2022-09-28T02:30:08.611Z,12.01
2022-09-28T02:32:42.160Z,12.00
2022-09-28T02:35:14.734Z,11.98
2022-09-28T02:37:42.149Z,11.96
2022-09-28T02:40:14.117Z,11.95
2022-09-28T02:43:09.687Z,11.95
2022-09-28T02:45:45.485Z,11.95
2022-09-28T02:48:43.484Z,11.94
2022-09-28T02:51:37.410Z,11.92
2022-09-28T02:54:19.306Z,11.88
2022-09-28T02:57:01.147Z,11.85
2022-09-28T02:59:53.540Z,11.85
2022-09-28T03:02:42.393Z,11.86
2022-09-28T03:05:14.473Z,11.86
2022-09-28T03:07:46.014Z,11.84
2022-09-28T03:10:34.928Z,11.82
2022-09-28T03:13:03.197Z,11.82
2022-09-28T03:15:34.778Z,11.83
2022-09-28T03:18:02.148Z,11.84
2022-09-28T03:20:30.081Z,11.84
2022-09-28T03:23:20.173Z,11.84
2022-09-28T03:25:43.883Z,11.82
2022-09-28T03:28:10.622Z,11.82
2022-09-28T03:30:37.279Z,11.82
2022-09-28T03:33:04.835Z,11.84
2022-09-28T03:35:31.557Z,11.83
2022-09-28T03:37:58.292Z,11.81
2022-09-28T03:40:25.378Z,11.79
2022-09-28T03:42:53.390Z,11.77
2022-09-28T03:45:20.104Z,11.77
2022-09-28T03:47:48.103Z,11.78
2022-09-28T03:50:15.671Z,11.79
2022-09-28T03:52:42.436Z,11.76
2022-09-28T03:55:10.434Z,11.75
2022-09-28T03:57:37.323Z,11.72
2022-09-28T04:00:04.983Z,11.71
2022-09-28T04:02:33.173Z,11.72
2022-09-28T04:05:00.008Z,11.72
2022-09-28T04:07:30.791Z,11.70
2022-09-28T04:09:58.450Z,11.68
2022-09-28T04:12:25.145Z,11.67
2022-09-28T04:14:51.813Z,11.67
2022-09-28T04:17:18.614Z,11.68
2022-09-28T04:19:46.845Z,11.67
2022-09-28T04:22:13.656Z,11.65
2022-09-28T04:24:42.900Z,11.63
2022-09-28T04:27:28.373Z,11.62
2022-09-28T04:29:55.180Z,11.59
2022-09-28T04:32:22.006Z,11.59
2022-09-28T04:34:48.915Z,11.58
2022-09-28T04:37:15.689Z,11.57
2022-09-28T04:39:47.478Z,11.54
2022-09-28T04:42:15.403Z,11.52
2022-09-28T04:44:42.472Z,11.51
2022-09-28T04:47:09.375Z,11.52
2022-09-28T04:49:37.722Z,11.53
2022-09-28T04:52:05.687Z,11.52
2022-09-28T04:54:32.525Z,11.50
2022-09-28T04:56:59.267Z,11.48
2022-09-28T04:59:28.905Z,11.48
2022-09-28T05:01:55.608Z,11.46
2022-09-28T05:04:25.814Z,11.45
2022-09-28T05:06:52.917Z,11.43
2022-09-28T05:09:19.571Z,11.40
2022-09-28T05:11:48.928Z,11.40
2022-09-28T05:14:16.199Z,11.40
2022-09-28T05:16:44.298Z,11.41
2022-09-28T05:19:11.895Z,11.41
2022-09-28T05:21:38.775Z,11.41
2022-09-28T05:24:06.953Z,11.39
2022-09-28T05:26:34.182Z,11.37
2022-09-28T05:29:00.983Z,11.37
2022-09-28T05:31:27.818Z,11.38
2022-09-28T05:33:54.763Z,11.39
2022-09-28T05:36:21.805Z,11.40
2022-09-28T05:38:48.449Z,11.38
2022-09-28T05:41:15.264Z,11.37
2022-09-28T05:43:43.922Z,11.38
2022-09-28T05:46:11.163Z,11.40
2022-09-28T05:48:37.968Z,11.39
2022-09-28T05:51:05.066Z,11.38
2022-09-28T05:53:31.871Z,11.38
2022-09-28T05:55:59.239Z,11.39
2022-09-28T05:58:27.733Z,11.39
2022-09-28T06:00:56.066Z,11.40
2022-09-28T06:03:23.469Z,11.41
2022-09-28T06:05:50.947Z,11.41
2022-09-28T06:08:17.710Z,11.40
2022-09-28T06:10:44.678Z,11.41
2022-09-28T06:13:11.760Z,11.43
2022-09-28T06:15:42.025Z,11.45
2022-09-28T06:18:16.338Z,11.47
2022-09-28T06:20:43.492Z,11.46
2022-09-28T06:23:12.374Z,11.45
2022-09-28T06:25:39.552Z,11.46
2022-09-28T06:28:14.864Z,11.46
2022-09-28T06:30:43.043Z,11.49
2022-09-28T06:33:12.300Z,11.50
2022-09-28T06:35:40.102Z,11.52
2022-09-28T06:38:06.911Z,11.51
2022-09-28T06:40:33.989Z,11.48
2022-09-28T06:43:09.920Z,11.44
2022-09-28T06:45:38.212Z,11.44
2022-09-28T06:48:05.724Z,11.44
2022-09-28T06:50:42.280Z,11.44
2022-09-28T06:53:12.999Z,11.43
2022-09-28T06:55:42.289Z,11.41
2022-09-28T06:58:14.288Z,11.39
2022-09-28T07:00:41.499Z,11.37
2022-09-28T07:03:11.791Z,11.38
2022-09-28T07:05:42.202Z,11.39
2022-09-28T07:08:09.096Z,11.40
2022-09-28T07:10:44.432Z,11.39
2022-09-28T07:13:34.312Z,11.38
2022-09-28T07:16:00.880Z,11.37
2022-09-28T07:18:29.278Z,11.36
2022-09-28T07:20:56.874Z,11.38
2022-09-28T07:23:27.123Z,11.40
2022-09-28T07:25:54.195Z,11.41
2022-09-28T07:28:21.745Z,11.40
2022-09-28T07:30:48.631Z,11.38
2022-09-28T07:33:16.963Z,11.36
2022-09-28T07:35:51.858Z,11.35
2022-09-28T07:38:18.864Z,11.35
2022-09-28T07:41:04.258Z,11.36
2022-09-28T07:43:32.095Z,11.37
2022-09-28T07:45:58.900Z,11.38
2022-09-28T07:48:25.924Z,11.36
2022-09-28T07:50:56.195Z,11.36
2022-09-28T07:53:24.912Z,11.36
2022-09-28T07:55:53.523Z,11.36
2022-09-28T07:58:21.018Z,11.38
2022-09-28T08:00:48.856Z,11.40
2022-09-28T08:03:17.230Z,11.41
2022-09-28T08:05:45.133Z,11.42
2022-09-28T08:08:11.872Z,11.45
2022-09-28T08:10:44.536Z,11.48
2022-09-28T08:13:14.481Z,11.52
2022-09-28T08:15:41.939Z,11.53
2022-09-28T08:18:08.861Z,11.54
2022-09-28T08:20:54.050Z,11.55
2022-09-28T08:23:20.787Z,11.54
2022-09-28T08:25:48.481Z,11.54
2022-09-28T08:28:18.929Z,11.54
2022-09-28T08:30:46.770Z,11.53
2022-09-28T08:33:16.953Z,11.52
2022-09-28T08:35:44.984Z,11.51
2022-09-28T08:38:12.608Z,11.52
2022-09-28T08:40:57.653Z,11.54
2022-09-28T08:43:56.407Z,11.57
2022-09-28T08:46:29.142Z,11.58
2022-09-28T08:49:30.534Z,11.61
2022-09-28T08:51:54.885Z,11.59
2022-09-28T08:54:53.957Z,11.57
2022-09-28T08:57:27.372Z,11.57
2022-09-28T08:59:57.704Z,11.59
2022-09-28T09:02:35.630Z,11.61
2022-09-28T09:05:06.377Z,11.65
2022-09-28T09:08:14.428Z,11.69
2022-09-28T09:11:01.272Z,11.70
2022-09-28T09:13:45.195Z,11.72
2022-09-28T09:16:24.079Z,11.75
2022-09-28T09:19:15.176Z,11.75
2022-09-28T09:22:04.643Z,11.75
2022-09-28T09:24:44.020Z,11.77
2022-09-28T09:27:28.518Z,11.76
2022-09-28T09:30:01.585Z,11.77
2022-09-28T09:32:37.168Z,11.82
2022-09-28T09:35:24.626Z,11.87
2022-09-28T09:38:16.214Z,11.91
2022-09-28T09:41:01.261Z,11.93
2022-09-28T09:43:30.933Z,11.93
2022-09-28T09:46:23.522Z,11.91
2022-09-28T09:49:20.130Z,11.91
2022-09-28T09:51:56.533Z,11.94
2022-09-28T09:54:34.525Z,11.98
2022-09-28T09:57:09.590Z,11.96
2022-09-28T09:59:41.173Z,11.96
2022-09-28T10:02:22.746Z,11.96
2022-09-28T10:04:54.372Z,11.96
2022-09-28T10:07:32.927Z,11.97
2022-09-28T10:10:02.021Z,12.01
2022-09-28T10:12:30.475Z,12.03
2022-09-28T10:14:57.857Z,12.06
2022-09-28T10:17:26.751Z,12.09
2022-09-28T10:19:56.316Z,12.10
2022-09-28T10:22:27.069Z,12.09
2022-09-28T10:24:57.831Z,12.14
2022-09-28T10:27:30.010Z,12.18
2022-09-28T10:30:09.115Z,12.22
2022-09-28T10:32:43.244Z,12.24
2022-09-28T10:35:19.266Z,12.27
2022-09-28T10:38:14.032Z,12.31
2022-09-28T10:40:50.131Z,12.35
2022-09-28T10:43:25.707Z,12.37
2022-09-28T10:46:14.671Z,12.38
2022-09-28T10:49:14.864Z,12.40
2022-09-28T10:51:46.012Z,12.41
2022-09-28T10:54:21.475Z,12.41
2022-09-28T10:56:49.990Z,12.43
2022-09-28T10:59:28.876Z,12.48
2022-09-28T11:01:59.983Z,12.55
2022-09-28T11:04:30.297Z,12.64
2022-09-28T11:09:31.920Z,12.77
2022-09-28T11:12:01.014Z,12.80
2022-09-28T11:14:43.129Z,12.80
2022-09-28T11:17:32.634Z,12.80
2022-09-28T11:20:24.702Z,12.81
2022-09-28T11:22:56.902Z,12.82
2022-09-28T11:25:25.033Z,12.86
2022-09-28T11:27:51.877Z,12.93
2022-09-28T11:30:38.045Z,13.01
2022-09-28T11:33:11.736Z,13.07
2022-09-28T11:36:03.014Z,13.13
2022-09-28T11:38:40.804Z,13.17
2022-09-28T11:41:24.473Z,13.18
2022-09-28T11:43:59.537Z,13.18
2022-09-28T11:46:41.323Z,13.17
2022-09-28T11:49:19.871Z,13.17
2022-09-28T11:51:59.025Z,13.20
2022-09-28T11:54:44.561Z,13.22
2022-09-28T11:57:17.876Z,13.17
2022-09-28T12:00:04.924Z,13.19
2022-09-28T12:03:03.678Z,13.24
2022-09-28T12:05:40.104Z,13.27
2022-09-28T12:08:24.889Z,13.30
2022-09-28T12:11:05.634Z,13.32
2022-09-28T12:13:37.076Z,13.36
2022-09-28T12:16:53.455Z,13.42
2022-09-28T12:19:34.769Z,13.47
2022-09-28T12:22:05.297Z,13.49
2022-09-28T12:24:48.819Z,13.46
2022-09-28T12:27:28.176Z,13.47
2022-09-28T12:30:01.809Z,13.48
2022-09-28T12:32:41.572Z,13.50
2022-09-28T12:35:59.370Z,13.54
2022-09-28T12:39:46.881Z,13.54
2022-09-28T12:42:45.040Z,13.52
2022-09-28T12:46:09.822Z,13.50
2022-09-28T12:50:01.772Z,13.47
2022-09-28T12:56:36.013Z,13.34
2022-09-28T12:59:39.231Z,13.27
2022-09-28T13:02:28.214Z,13.24
2022-09-28T13:05:13.566Z,13.22
2022-09-28T13:08:09.766Z,13.20
2022-09-28T13:11:25.870Z,13.18
2022-09-28T13:14:32.435Z,13.15
2022-09-28T13:17:00.992Z,13.11
2022-09-28T13:19:49.261Z,13.11
2022-09-28T13:22:33.440Z,13.08
2022-09-28T13:25:23.394Z,13.05
2022-09-28T13:28:00.530Z,13.02
2022-09-28T13:30:27.826Z,13.01
2022-09-28T13:33:00.741Z,12.96
2022-09-28T13:38:28.913Z,12.89
2022-09-28T13:41:04.309Z,12.85
2022-09-28T13:43:41.439Z,12.82
2022-09-28T13:46:25.460Z,12.77
2022-09-28T13:49:17.142Z,12.71
2022-09-28T13:51:54.871Z,12.64
2022-09-28T13:54:52.097Z,12.61
2022-09-28T13:57:25.752Z,12.60
2022-09-28T14:00:07.126Z,12.58
2022-09-28T14:02:43.975Z,12.57
2022-09-28T14:05:22.663Z,12.55
2022-09-28T14:08:34.099Z,12.56
2022-09-28T14:11:24.455Z,12.55
2022-09-28T14:14:04.256Z,12.57
2022-09-28T14:16:33.933Z,12.59
2022-09-28T14:19:06.515Z,12.58
2022-09-28T14:21:57.827Z,12.57
2022-09-28T14:24:33.369Z,12.57
2022-09-28T14:27:31.888Z,12.57
2022-09-28T14:30:10.656Z,12.59
2022-09-28T14:32:40.188Z,12.61
2022-09-28T14:35:18.858Z,12.63
2022-09-28T14:38:07.986Z,12.64
2022-09-28T14:41:14.717Z,12.64
2022-09-28T14:43:44.480Z,12.64
2022-09-28T14:46:11.411Z,12.64
2022-09-28T14:48:54.286Z,12.66
2022-09-28T14:51:29.581Z,12.69
2022-09-28T14:54:02.507Z,12.72
2022-09-28T14:56:38.436Z,12.73
2022-09-28T14:59:12.422Z,12.73
2022-09-28T15:01:39.818Z,12.72
2022-09-28T15:04:12.342Z,12.74
2022-09-28T15:06:46.909Z,12.77
2022-09-28T15:09:33.466Z,12.79
2022-09-28T15:12:12.545Z,12.77
2022-09-28T15:15:01.729Z,12.77
2022-09-28T15:17:39.717Z,12.74
2022-09-28T15:20:30.005Z,12.73
2022-09-28T15:22:58.908Z,12.75
2022-09-28T15:25:28.226Z,12.77
2022-09-28T15:28:05.982Z,12.78
2022-09-28T15:30:34.674Z,12.78
2022-09-28T15:33:22.275Z,12.77
2022-09-28T15:36:03.021Z,12.75
2022-09-28T15:38:33.511Z,12.74
2022-09-28T15:41:04.873Z,12.75
2022-09-28T15:43:33.639Z,12.76
2022-09-28T15:46:21.299Z,12.77
2022-09-28T15:48:58.739Z,12.76
2022-09-28T15:51:27.842Z,12.75
2022-09-28T15:54:11.368Z,12.72
2022-09-28T15:56:59.719Z,12.70
2022-09-28T15:59:34.189Z,12.71
2022-09-28T16:02:16.842Z,12.71
2022-09-28T16:04:54.570Z,12.70
2022-09-28T16:07:41.058Z,12.68
2022-09-28T16:10:13.570Z,12.64
2022-09-28T16:12:42.590Z,12.62
2022-09-28T16:15:19.655Z,12.61
2022-09-28T16:18:02.128Z,12.60
2022-09-28T16:20:33.568Z,12.58
2022-09-28T16:23:30.515Z,12.55
2022-09-28T16:26:13.691Z,12.50
2022-09-28T16:28:41.856Z,12.45
2022-09-28T16:31:14.581Z,12.39
2022-09-28T16:33:59.050Z,12.34
2022-09-28T16:36:29.292Z,12.31
2022-09-28T16:38:56.478Z,12.30
2022-09-28T16:41:26.828Z,12.27
2022-09-28T16:44:00.869Z,12.23
2022-09-28T16:46:34.393Z,12.19
2022-09-28T16:49:02.551Z,12.15
2022-09-28T16:51:29.348Z,12.11
2022-09-28T16:54:28.392Z,12.09
2022-09-28T16:56:55.196Z,12.09
2022-09-28T16:59:21.865Z,12.07
2022-09-28T17:01:48.887Z,12.04
2022-09-28T17:04:15.711Z,12.02
2022-09-28T17:06:42.934Z,11.99
2022-09-28T17:09:12.970Z,11.97
2022-09-28T17:11:40.049Z,11.95
2022-09-28T17:14:08.273Z,11.96
2022-09-28T17:17:07.460Z,11.96
2022-09-28T17:19:25.296Z,11.95
2022-09-28T17:21:52.820Z,11.94
2022-09-28T17:24:20.277Z,11.92
2022-09-28T17:26:49.343Z,11.91
2022-09-28T17:29:16.279Z,11.90
2022-09-28T17:31:44.636Z,11.89
2022-09-28T17:34:14.638Z,11.88
2022-09-28T17:36:41.890Z,11.86
2022-09-28T17:39:16.984Z,11.84
2022-09-28T17:41:44.219Z,11.81
2022-09-28T17:44:13.323Z,11.78
2022-09-28T17:46:48.130Z,11.77
2022-09-28T17:49:16.045Z,11.77
2022-09-28T17:51:42.984Z,11.76
2022-09-28T17:54:10.471Z,11.74
2022-09-28T17:56:38.369Z,11.73
2022-09-28T17:59:09.253Z,11.71
2022-09-28T18:01:38.911Z,11.68
2022-09-28T18:04:08.240Z,11.67
2022-09-28T18:06:36.519Z,11.67
2022-09-28T18:09:04.188Z,11.67
2022-09-28T18:11:32.882Z,11.65
2022-09-28T18:14:00.305Z,11.63
2022-09-28T18:16:28.081Z,11.59
2022-09-28T18:18:55.115Z,11.57
2022-09-28T18:21:21.923Z,11.57
2022-09-28T18:23:48.876Z,11.55
2022-09-28T18:26:18.388Z,11.54
2022-09-28T18:28:45.812Z,11.52
2022-09-28T18:31:15.088Z,11.50
2022-09-28T18:33:43.177Z,11.49
2022-09-28T18:36:10.275Z,11.48
2022-09-28T18:38:37.869Z,11.48
2022-09-28T18:41:16.230Z,11.49
2022-09-28T18:43:48.523Z,11.48
2022-09-28T18:46:17.698Z,11.46
2022-09-28T18:48:44.467Z,11.45
2022-09-28T18:51:12.286Z,11.44
2022-09-28T18:53:39.959Z,11.42
2022-09-28T18:56:08.887Z,11.42
2022-09-28T18:58:43.293Z,11.44
2022-09-28T19:01:35.005Z,11.45
2022-09-28T19:04:04.971Z,11.45
2022-09-28T19:06:33.740Z,11.44
2022-09-28T19:09:01.015Z,11.41
2022-09-28T19:11:29.763Z,11.40
2022-09-28T19:13:57.266Z,11.39
2022-09-28T19:16:52.119Z,11.37
2022-09-28T19:19:21.106Z,11.37
2022-09-28T19:21:48.106Z,11.36
2022-09-28T19:24:18.122Z,11.35
2022-09-28T19:26:46.111Z,11.33
2022-09-28T19:29:13.960Z,11.33
2022-09-28T19:31:42.757Z,11.34
2022-09-28T19:34:13.297Z,11.36
2022-09-28T19:36:42.747Z,11.36
2022-09-28T19:39:13.386Z,11.36
2022-09-28T19:41:44.451Z,11.35
2022-09-28T19:44:19.118Z,11.33
2022-09-28T19:46:46.177Z,11.31
2022-09-28T19:49:22.029Z,11.29
2022-09-28T19:52:11.577Z,11.30
2022-09-28T19:54:37.884Z,11.31
2022-09-28T19:57:08.189Z,11.28
2022-09-28T19:59:38.489Z,11.27
2022-09-28T20:02:06.910Z,11.24
2022-09-28T20:04:33.811Z,11.22
2022-09-28T20:07:01.185Z,11.20
2022-09-28T20:09:28.350Z,11.20
2022-09-28T20:11:55.233Z,11.21
2022-09-28T20:14:24.483Z,11.20
2022-09-28T20:16:53.477Z,11.18
2022-09-28T20:19:22.444Z,11.13
2022-09-28T20:21:49.905Z,11.10
2022-09-28T20:24:16.977Z,11.09
2022-09-28T20:26:45.163Z,11.09
2022-09-28T20:29:12.316Z,11.06
2022-09-28T20:31:39.227Z,11.04
2022-09-28T20:34:06.900Z,11.01
2022-09-28T20:36:33.858Z,10.98
2022-09-28T20:39:01.967Z,10.96
2022-09-28T20:41:34.187Z,10.94
2022-09-28T20:44:05.272Z,10.93
2022-09-28T20:46:36.831Z,10.91
2022-09-28T20:49:04.698Z,10.91
2022-09-28T20:51:32.223Z,10.88
2022-09-28T20:53:59.781Z,10.85
2022-09-28T20:56:29.942Z,10.84
2022-09-28T20:58:57.112Z,10.83
2022-09-28T21:01:29.432Z,10.83
2022-09-28T21:03:57.488Z,10.84
2022-09-28T21:06:29.778Z,10.84
2022-09-28T21:08:57.125Z,10.82
2022-09-28T21:11:25.750Z,10.79
2022-09-28T21:13:58.052Z,10.77
2022-09-28T21:16:26.592Z,10.76
2022-09-28T21:18:53.511Z,10.75
2022-09-28T21:21:21.849Z,10.75
2022-09-28T21:23:52.730Z,10.75
2022-09-28T21:26:25.246Z,10.73
2022-09-28T21:28:57.703Z,10.71
2022-09-28T21:31:29.051Z,10.70
2022-09-28T21:33:57.138Z,10.71
2022-09-28T21:36:24.560Z,10.72
2022-09-28T21:38:51.438Z,10.74
2022-09-28T21:41:18.178Z,10.73
2022-09-28T21:43:45.359Z,10.71
2022-09-28T21:46:12.506Z,10.67
2022-09-28T21:48:39.994Z,10.64
2022-09-28T21:51:09.651Z,10.63
2022-09-28T21:53:37.691Z,10.63
2022-09-28T21:56:08.867Z,10.61
2022-09-28T21:58:36.400Z,10.59
2022-09-28T22:01:31.125Z,10.56
2022-09-28T22:03:58.539Z,10.53
2022-09-28T22:06:27.730Z,10.50
2022-09-28T22:08:55.134Z,10.47
2022-09-28T22:11:23.879Z,10.48
2022-09-28T22:13:53.584Z,10.47
2022-09-28T22:16:23.955Z,10.45
2022-09-28T22:18:51.008Z,10.43
2022-09-28T22:21:21.040Z,10.38
2022-09-28T22:23:53.008Z,10.35
2022-09-28T22:26:27.119Z,10.32
2022-09-28T22:29:07.277Z,10.33
2022-09-28T22:31:38.779Z,10.32
2022-09-28T22:34:09.130Z,10.29
2022-09-28T22:36:36.138Z,10.26
2022-09-28T22:39:03.156Z,10.23
2022-09-28T22:41:31.545Z,10.23
2022-09-28T22:43:58.544Z,10.24
2022-09-28T22:46:27.741Z,10.24
2022-09-28T22:48:57.677Z,10.23
2022-09-28T22:51:26.347Z,10.20
2022-09-28T22:53:53.152Z,10.17
2022-09-28T22:56:19.978Z,10.16
2022-09-28T22:58:46.994Z,10.15
2022-09-28T23:01:17.105Z,10.16
2022-09-28T23:03:44.364Z,10.17
2022-09-28T23:06:13.064Z,10.15
2022-09-28T23:08:39.850Z,10.14
2022-09-28T23:11:06.786Z,10.12
2022-09-28T23:13:34.599Z,10.11
2022-09-28T23:16:03.580Z,10.10
2022-09-28T23:18:32.774Z,10.11
2022-09-28T23:21:02.260Z,10.11
2022-09-28T23:23:29.648Z,10.09
2022-09-28T23:25:56.707Z,10.06
2022-09-28T23:28:25.657Z,10.03
2022-09-28T23:30:53.487Z,10.01
2022-09-28T23:33:20.897Z,10.00
2022-09-28T23:35:48.109Z,9.99
2022-09-28T23:38:20.097Z,9.98
2022-09-28T23:40:47.309Z,9.96
2022-09-28T23:43:14.775Z,9.94
2022-09-28T23:45:44.977Z,9.92
2022-09-28T23:48:14.317Z,9.91
2022-09-28T23:50:42.702Z,9.92
2022-09-28T23:53:11.410Z,9.93
2022-09-28T23:55:38.133Z,9.94
2022-09-28T23:58:05.167Z,9.94
